createdAt,value
2018-01-21T00:06:23.366Z,0
2018-01-21T00:16:23.313Z,0
2018-01-21T00:26:23.319Z,0
2018-01-21T00:36:23.264Z,0
2018-01-21T00:46:23.373Z,0
2018-01-21T00:56:23.392Z,0
2018-01-21T01:06:23.403Z,0
2018-01-21T01:16:23.316Z,0
2018-01-21T01:26:33.522Z,0
2018-01-21T01:36:34.068Z,0
2018-01-21T01:46:23.712Z,0
2018-01-21T01:56:24.395Z,0
2018-01-21T02:06:23.353Z,0
2018-01-21T02:16:23.393Z,0
2018-01-21T02:26:23.332Z,0
2018-01-21T02:36:23.413Z,0
2018-01-21T02:46:24.399Z,0
2018-01-21T02:56:23.451Z,0
2018-01-21T03:06:23.434Z,0
2018-01-21T03:16:23.526Z,0
2018-01-21T03:26:23.469Z,0
2018-01-21T03:36:23.543Z,0
2018-01-21T03:46:23.494Z,0
2018-01-21T03:56:23.534Z,0
2018-01-21T04:06:23.470Z,0
2018-01-21T04:16:23.418Z,0
2018-01-21T04:26:23.500Z,0
2018-01-21T04:36:23.478Z,0
2018-01-21T04:46:23.577Z,0
2018-01-21T04:56:23.494Z,0
2018-01-21T05:06:23.533Z,0
2018-01-21T05:16:23.521Z,0
2018-01-21T05:26:23.540Z,0
2018-01-21T05:36:23.548Z,0
2018-01-21T05:46:23.953Z,0
2018-01-21T05:56:23.556Z,0
2018-01-21T06:06:23.551Z,0
2018-01-21T06:16:23.629Z,0
2018-01-21T06:26:23.549Z,0
2018-01-21T06:36:23.620Z,0
2018-01-21T06:46:23.566Z,0
2018-01-21T06:56:23.667Z,0
2018-01-21T07:06:23.616Z,0
2018-01-21T07:16:23.667Z,0
2018-01-21T07:26:23.612Z,5
2018-01-21T07:36:23.589Z,10
2018-01-21T07:46:23.698Z,10
2018-01-21T07:56:23.607Z,20
2018-01-21T08:06:23.724Z,30
2018-01-21T08:16:23.612Z,20
2018-01-21T08:26:23.730Z,40
2018-01-21T08:36:23.665Z,30
2018-01-21T08:46:23.754Z,45
2018-01-21T08:56:24.111Z,50
2018-01-21T09:06:23.734Z,65
2018-01-21T09:16:23.746Z,60
2018-01-21T09:26:23.832Z,60
2018-01-21T09:36:23.825Z,70
2018-01-21T09:46:23.745Z,85
2018-01-21T09:56:23.793Z,105
2018-01-21T10:06:23.758Z,110
2018-01-21T10:16:23.753Z,120
2018-01-21T10:26:23.718Z,95
2018-01-21T10:36:23.844Z,100
2018-01-21T10:46:23.825Z,115
2018-01-21T10:56:24.040Z,95
2018-01-21T11:06:23.883Z,115
2018-01-21T11:16:23.954Z,95
2018-01-21T11:26:23.773Z,110
2018-01-21T11:36:24.013Z,115
2018-01-21T11:46:23.890Z,75
2018-01-21T11:56:23.821Z,80
2018-01-21T12:06:23.812Z,85
2018-01-21T12:16:23.825Z,85
2018-01-21T12:26:23.966Z,95
2018-01-21T12:36:23.903Z,100
2018-01-21T12:46:23.945Z,85
2018-01-21T12:56:23.893Z,90
2018-01-21T13:06:23.972Z,110
2018-01-21T13:16:23.978Z,55
2018-01-21T13:26:24.037Z,60
2018-01-21T13:36:24.194Z,50
2018-01-21T13:46:24.057Z,30
2018-01-21T13:56:23.934Z,35
2018-01-21T14:06:24.053Z,75
2018-01-21T14:16:24.005Z,50
2018-01-21T14:26:23.956Z,40
2018-01-21T14:36:24.018Z,40
2018-01-21T14:46:23.978Z,35
2018-01-21T14:56:24.150Z,30
2018-01-21T15:06:24.088Z,20
2018-01-21T15:16:53.955Z,20
2018-01-21T15:27:15.475Z,15
2018-01-21T15:36:53.987Z,10
2018-01-21T15:46:53.930Z,5
2018-01-21T15:56:53.984Z,0
2018-01-21T16:06:53.962Z,0
2018-01-21T16:16:54.021Z,0
2018-01-21T16:26:54.023Z,0
2018-01-21T16:36:54.166Z,0
2018-01-21T16:46:53.936Z,0
2018-01-21T16:57:00.517Z,0
2018-01-21T17:06:53.984Z,0
2018-01-21T17:16:55.550Z,0
2018-01-21T17:26:54.325Z,0
2018-01-21T17:36:54.452Z,0
2018-01-21T17:46:54.032Z,0
2018-01-21T17:56:53.918Z,0
2018-01-21T18:06:53.975Z,0
2018-01-21T18:16:53.902Z,0
2018-01-21T18:26:53.912Z,0
2018-01-21T18:36:54.121Z,0
2018-01-21T18:46:55.431Z,0
2018-01-21T18:56:53.865Z,0
2018-01-21T19:06:54.010Z,0
2018-01-21T19:16:53.838Z,0
2018-01-21T19:26:53.927Z,0
2018-01-21T19:36:54.110Z,0
2018-01-21T19:46:53.942Z,0
2018-01-21T19:56:53.814Z,0
2018-01-21T20:06:54.026Z,0
2018-01-21T20:16:54.004Z,0
2018-01-21T20:26:54.203Z,0
2018-01-21T20:36:54.403Z,0
2018-01-21T20:46:54.259Z,0
2018-01-21T20:56:53.829Z,0
2018-01-21T21:06:53.997Z,0
2018-01-21T21:16:55.027Z,0
2018-01-21T21:26:53.761Z,0
2018-01-21T21:36:53.931Z,0
2018-01-21T21:46:54.020Z,0
2018-01-21T21:56:53.921Z,0
2018-01-21T22:06:53.901Z,0
2018-01-21T22:16:53.904Z,0
2018-01-21T22:26:53.895Z,0
2018-01-21T22:36:54.105Z,0
2018-01-21T22:46:54.443Z,0
2018-01-21T22:56:53.942Z,0
2018-01-21T23:06:53.977Z,0
2018-01-21T23:16:54.205Z,0
2018-01-21T23:26:53.876Z,0
2018-01-21T23:36:53.813Z,0
2018-01-21T23:46:53.885Z,0
2018-01-21T23:56:53.773Z,0
